Time;durP1;ratioP1;P1;durP2;ratioP2;P2;SDS_P1;SDS_P2;PMS_P1;PMS_P2;Temp;Humidity;BMP_temperature;BMP_pressure;BME280_temperature;BME280_humidity;BME280_pressure;Samples;Min_cycle;Max_cycle;Signal;HPM_P1;HPM_P2
2022/09/14 00:01:53;;;;;;;;;;;;;;;15.06;100.00;98014.80;2203759;80;20155;-58
2022/09/14 00:04:54;;;;;;;;;;;;;;;14.98;100.00;98012.84;2206705;80;20606;-58
2022/09/14 00:07:56;;;;;;;;;;;;;;;14.89;100.00;98020.30;2191894;80;20096;-59
2022/09/14 00:10:57;;;;;;;;;;;;;;;14.82;100.00;98009.95;2207066;79;20112;-59
2022/09/14 00:13:58;;;;;;;;;;;;;;;14.79;100.00;97999.19;2201742;80;20100;-58
2022/09/14 00:17:00;;;;;;;;;;;;;;;14.86;100.00;97997.65;2203778;80;20097;-57
2022/09/14 00:20:01;;;;;;;;;;;;;;;14.76;100.00;98002.61;2205524;79;20116;-58
2022/09/14 00:23:03;;;;;;;;;;;;;;;14.80;100.00;97996.08;2203579;80;20124;-58
2022/09/14 00:26:04;;;;;;;;;;;;;;;14.81;100.00;97996.41;2200453;80;20419;-58
2022/09/14 00:29:06;;;;;;;;;;;;;;;14.76;100.00;97998.65;2191178;80;20201;-57
2022/09/14 00:32:07;;;;;;;;;;;;;;;14.73;100.00;97996.62;2201310;80;20104;-58
2022/09/14 00:35:09;;;;;;;;;;;;;;;14.73;100.00;97994.48;2208337;80;20105;-57
2022/09/14 00:38:11;;;;;;;;;;;;;;;14.77;100.00;98001.14;2202577;80;20088;-57
2022/09/14 00:41:13;;;;;;;;;;;;;;;14.67;100.00;98001.14;2202982;80;20419;-57
2022/09/14 00:44:14;;;;;;;;;;;;;;;14.68;100.00;97997.55;2205985;79;20104;-58
2022/09/14 00:47:15;;;;;;;;;;;;;;;14.72;100.00;97997.61;2202163;79;20089;-57
2022/09/14 00:50:17;;;;;;;;;;;;;;;14.72;100.00;97999.40;2209713;79;20108;-57
2022/09/14 00:53:18;;;;;;;;;;;;;;;14.66;100.00;97998.65;2206455;80;20097;-58
2022/09/14 00:56:20;;;;;;;;;;;;;;;14.62;100.00;97991.98;2208677;80;20152;-58
2022/09/14 00:59:21;;;;;;;;;;;;;;;14.61;100.00;97987.63;2206944;79;20104;-58
2022/09/14 01:02:23;;;;;;;;;;;;;;;14.61;100.00;97996.41;2205093;80;20410;-59
2022/09/14 01:05:24;;;;;;;;;;;;;;;14.63;100.00;97997.61;2201351;80;20182;-59
2022/09/14 01:08:26;;;;;;;;;;;;;;;14.65;100.00;97999.61;2207086;79;20159;-58
2022/09/14 01:11:27;;;;;;;;;;;;;;;14.69;100.00;98004.96;2203611;80;20112;-58
2022/09/14 01:14:30;;;;;;;;;;;;;;;14.72;100.00;97998.08;2202151;80;20096;-59
2022/09/14 01:17:32;;;;;;;;;;;;;;;14.85;100.00;97995.97;2202302;80;20407;-58
2022/09/14 01:20:33;;;;;;;;;;;;;;;14.78;100.00;98000.65;2202674;80;20168;-58
2022/09/14 01:23:34;;;;;;;;;;;;;;;14.75;100.00;97998.30;2204053;80;20113;-58
2022/09/14 01:26:36;;;;;;;;;;;;;;;14.69;100.00;97996.55;2209983;80;20132;-58
2022/09/14 01:29:37;;;;;;;;;;;;;;;14.68;100.00;97992.73;2199979;81;20100;-58
2022/09/14 01:32:39;;;;;;;;;;;;;;;14.75;100.00;98002.25;2205583;79;20508;-58
2022/09/14 01:35:40;;;;;;;;;;;;;;;14.79;100.00;97990.45;2203595;80;20112;-58
2022/09/14 01:38:42;;;;;;;;;;;;;;;14.83;100.00;97991.34;2203594;80;20123;-58
2022/09/14 01:41:44;;;;;;;;;;;;;;;14.84;100.00;97985.09;2207425;80;20116;-58
2022/09/14 01:44:46;;;;;;;;;;;;;;;14.80;100.00;97980.23;2209432;80;20132;-58
2022/09/14 01:47:48;;;;;;;;;;;;;;;14.87;100.00;97985.30;2200433;81;20093;-58
2022/09/14 01:50:49;;;;;;;;;;;;;;;14.74;100.00;97978.99;2203694;80;20132;-59
2022/09/14 01:53:51;;;;;;;;;;;;;;;14.69;100.00;97979.89;2204611;80;20221;-58
2022/09/14 01:56:52;;;;;;;;;;;;;;;14.66;100.00;97970.94;2203099;80;20450;-59
2022/09/14 01:59:54;;;;;;;;;;;;;;;14.61;100.00;97973.97;2202765;80;20122;-58
2022/09/14 02:02:56;;;;;;;;;;;;;;;14.57;100.00;97967.30;2191222;80;20225;-58
2022/09/14 02:05:58;;;;;;;;;;;;;;;14.53;100.00;97964.09;2203021;80;20403;-58
2022/09/14 02:08:59;;;;;;;;;;;;;;;14.45;100.00;97956.06;2207273;79;20097;-58
2022/09/14 02:12:01;;;;;;;;;;;;;;;14.45;100.00;97957.39;2205246;80;20104;-58
2022/09/14 02:15:02;;;;;;;;;;;;;;;14.48;100.00;97949.66;2206756;80;20156;-58
2022/09/14 02:18:04;;;;;;;;;;;;;;;14.43;100.00;97946.62;2208801;79;20159;-58
2022/09/14 02:21:06;;;;;;;;;;;;;;;14.51;100.00;97940.98;2198778;80;20426;-59
2022/09/14 02:24:07;;;;;;;;;;;;;;;14.55;100.00;97937.10;2207531;79;20111;-58
2022/09/14 02:27:09;;;;;;;;;;;;;;;14.50;100.00;97937.17;2203611;80;20124;-59
2022/09/14 02:30:10;;;;;;;;;;;;;;;14.49;100.00;97938.96;2206724;80;20101;-59
2022/09/14 02:33:12;;;;;;;;;;;;;;;14.46;100.00;97943.70;2203987;80;20120;-59
2022/09/14 02:36:14;;;;;;;;;;;;;;;14.46;100.00;97935.28;2204143;80;20411;-58
2022/09/14 02:39:16;;;;;;;;;;;;;;;14.47;100.00;97933.00;2207853;80;20120;-57
2022/09/14 02:42:17;;;;;;;;;;;;;;;14.50;100.00;97926.62;2198647;80;20097;-58
2022/09/14 02:45:18;;;;;;;;;;;;;;;14.42;100.00;97915.42;2203433;80;20427;-59
2022/09/14 02:48:20;;;;;;;;;;;;;;;14.44;100.00;97911.33;2199195;80;20115;-57
2022/09/14 02:51:22;;;;;;;;;;;;;;;14.40;100.00;97914.75;2202508;80;20115;-57
2022/09/14 02:54:23;;;;;;;;;;;;;;;14.33;100.00;97899.14;2192864;80;20104;-58
2022/09/14 02:57:25;;;;;;;;;;;;;;;14.37;100.00;97905.30;2208166;80;20145;-58
2022/09/14 03:00:26;;;;;;;;;;;;;;;14.36;100.00;97899.67;2206655;80;20411;-58
2022/09/14 03:03:28;;;;;;;;;;;;;;;14.23;100.00;97905.73;2204714;80;20099;-58
2022/09/14 03:06:29;;;;;;;;;;;;;;;14.19;100.00;97902.55;2206645;80;20104;-58
2022/09/14 03:09:31;;;;;;;;;;;;;;;14.18;100.00;97908.78;2200984;80;20159;-59
2022/09/14 03:12:33;;;;;;;;;;;;;;;13.97;100.00;97907.59;2204121;80;20143;-58
2022/09/14 03:15:34;;;;;;;;;;;;;;;13.75;100.00;97903.41;2207091;80;20407;-60
2022/09/14 03:18:35;;;;;;;;;;;;;;;13.64;100.00;97903.53;2204645;80;20105;-57
2022/09/14 03:21:37;;;;;;;;;;;;;;;13.62;100.00;97895.77;2209842;80;20108;-58
2022/09/14 03:24:38;;;;;;;;;;;;;;;13.62;100.00;97898.39;2205083;80;20158;-57
2022/09/14 03:27:40;;;;;;;;;;;;;;;13.60;100.00;97902.12;2186670;80;20194;-58
2022/09/14 03:30:42;;;;;;;;;;;;;;;13.53;100.00;97905.77;2204710;80;20407;-58
2022/09/14 03:33:43;;;;;;;;;;;;;;;13.54;100.00;97910.08;2206369;80;20144;-58
2022/09/14 03:36:45;;;;;;;;;;;;;;;13.48;100.00;97915.41;2200238;81;20108;-58
2022/09/14 03:39:46;;;;;;;;;;;;;;;13.46;100.00;97908.59;2200582;81;20096;-59
2022/09/14 03:42:48;;;;;;;;;;;;;;;13.46;100.00;97902.02;2200985;80;20108;-58
2022/09/14 03:45:49;;;;;;;;;;;;;;;13.46;100.00;97896.28;2202720;80;20383;-58
2022/09/14 03:48:51;;;;;;;;;;;;;;;13.57;100.00;97903.72;2204338;80;20202;-58
2022/09/14 03:51:52;;;;;;;;;;;;;;;13.65;100.00;97903.88;2208007;80;20143;-58
2022/09/14 03:54:53;;;;;;;;;;;;;;;13.72;100.00;97909.42;2203838;80;20104;-58
2022/09/14 03:57:55;;;;;;;;;;;;;;;13.67;100.00;97904.07;2205973;80;20109;-58
2022/09/14 04:00:56;;;;;;;;;;;;;;;13.47;100.00;97908.95;2205398;80;20403;-58
2022/09/14 04:03:58;;;;;;;;;;;;;;;13.44;100.00;97911.37;2202911;80;20097;-57
2022/09/14 04:06:59;;;;;;;;;;;;;;;13.50;100.00;97902.95;2204145;80;20579;-58
2022/09/14 04:10:00;;;;;;;;;;;;;;;13.62;100.00;97898.39;2207560;79;20214;-57
2022/09/14 04:13:02;;;;;;;;;;;;;;;13.72;100.00;97903.69;2199235;80;20108;-59
2022/09/14 04:16:03;;;;;;;;;;;;;;;13.83;100.00;97904.04;2204820;80;20092;-58
2022/09/14 04:19:05;;;;;;;;;;;;;;;13.95;100.00;97911.33;2205392;80;20115;-58
2022/09/14 04:22:06;;;;;;;;;;;;;;;13.91;100.00;97907.33;2198097;80;20392;-58
2022/09/14 04:25:08;;;;;;;;;;;;;;;13.99;100.00;97902.17;2205114;80;20097;-59
2022/09/14 04:28:10;;;;;;;;;;;;;;;14.03;100.00;97902.25;2206211;80;20414;-58
2022/09/14 04:31:11;;;;;;;;;;;;;;;14.07;100.00;97898.37;2203210;80;20202;-58
2022/09/14 04:34:13;;;;;;;;;;;;;;;14.18;100.00;97908.78;2202654;80;20184;-58
2022/09/14 04:37:15;;;;;;;;;;;;;;;14.10;100.00;97898.09;2204971;80;20218;-57
2022/09/14 04:40:16;;;;;;;;;;;;;;;13.91;100.00;97904.69;2204640;79;20202;-57
2022/09/14 04:43:18;;;;;;;;;;;;;;;13.80;100.00;97912.22;2200724;80;20469;-56
2022/09/14 04:46:20;;;;;;;;;;;;;;;13.78;100.00;97909.72;2203005;80;20089;-57
2022/09/14 04:49:21;;;;;;;;;;;;;;;13.81;100.00;97914.72;2209000;80;20132;-56
2022/09/14 04:52:23;;;;;;;;;;;;;;;13.96;100.00;97905.09;2202547;79;20419;-58
2022/09/14 04:55:26;;;;;;;;;;;;;;;14.12;100.00;97901.91;2200383;80;20198;-58
2022/09/14 04:58:28;;;;;;;;;;;;;;;14.29;100.00;97903.84;2199677;80;20109;-59
2022/09/14 05:01:29;;;;;;;;;;;;;;;14.47;100.00;97907.12;2204772;79;20108;-59
2022/09/14 05:04:31;;;;;;;;;;;;;;;14.52;100.00;97910.14;2202712;80;20109;-59
2022/09/14 05:07:32;;;;;;;;;;;;;;;14.52;100.00;97907.05;2203660;80;20105;-58
2022/09/14 05:10:34;;;;;;;;;;;;;;;14.47;100.00;97915.03;2205357;80;20399;-58
2022/09/14 05:13:35;;;;;;;;;;;;;;;14.58;100.00;97912.22;2207588;79;20096;-59
2022/09/14 05:16:37;;;;;;;;;;;;;;;14.67;100.00;97900.03;2202296;80;20134;-58
2022/09/14 05:19:38;;;;;;;;;;;;;;;14.68;100.00;97916.19;2200448;80;20120;-57
2022/09/14 05:22:40;;;;;;;;;;;;;;;14.77;100.00;97911.87;2207541;79;20187;-58
2022/09/14 05:25:41;;;;;;;;;;;;;;;14.81;100.00;97914.10;2205895;80;20403;-59
2022/09/14 05:28:43;;;;;;;;;;;;;;;14.78;100.00;97919.64;2200183;80;20132;-59
2022/09/14 05:31:44;;;;;;;;;;;;;;;14.73;100.00;97922.71;2205268;80;20395;-59
2022/09/14 05:34:46;;;;;;;;;;;;;;;14.76;100.00;97912.36;2207983;79;20096;-59
2022/09/14 05:37:48;;;;;;;;;;;;;;;14.88;100.00;97918.30;2199943;80;20113;-58
2022/09/14 05:40:49;;;;;;;;;;;;;;;14.93;100.00;97917.40;2209910;80;20100;-58
2022/09/14 05:43:50;;;;;;;;;;;;;;;15.02;100.00;97918.34;2196904;80;20097;-58
2022/09/14 05:46:52;;;;;;;;;;;;;;;15.07;100.00;97916.94;2208257;79;20501;-58
2022/09/14 05:49:53;;;;;;;;;;;;;;;15.22;100.00;97916.47;2206778;80;20222;-58
2022/09/14 05:52:56;;;;;;;;;;;;;;;15.36;100.00;97911.20;2201942;80;20323;-58
2022/09/14 05:55:57;;;;;;;;;;;;;;;15.49;100.00;97909.04;2201482;79;20101;-59
2022/09/14 05:58:59;;;;;;;;;;;;;;;15.60;100.00;97904.03;2204703;80;20104;-58
2022/09/14 06:02:00;;;;;;;;;;;;;;;15.73;100.00;97905.00;2202201;80;20100;-58
2022/09/14 06:05:01;;;;;;;;;;;;;;;15.74;100.00;97914.60;2206541;80;20430;-59
2022/09/14 06:08:04;;;;;;;;;;;;;;;15.73;100.00;97896.59;2205168;80;20129;-58
2022/09/14 06:11:06;;;;;;;;;;;;;;;15.77;100.00;97906.36;2207737;80;20085;-58
2022/09/14 06:14:07;;;;;;;;;;;;;;;15.85;100.00;97895.09;2205593;80;20528;-58
2022/09/14 06:17:09;;;;;;;;;;;;;;;15.90;100.00;97900.75;2205185;79;20190;-59
2022/09/14 06:20:11;;;;;;;;;;;;;;;16.09;100.00;97914.31;2204720;80;20112;-58
2022/09/14 06:23:12;;;;;;;;;;;;;;;16.21;100.00;97914.44;2207043;80;20128;-57
2022/09/14 06:26:14;;;;;;;;;;;;;;;16.37;100.00;97908.45;2204468;80;20125;-57
2022/09/14 06:29:15;;;;;;;;;;;;;;;16.55;100.00;97913.73;2203195;80;20395;-59
2022/09/14 06:32:17;;;;;;;;;;;;;;;16.63;100.00;97912.95;2200241;81;20108;-57
2022/09/14 06:35:19;;;;;;;;;;;;;;;16.73;100.00;97913.69;2202397;80;20125;-58
2022/09/14 06:38:21;;;;;;;;;;;;;;;16.83;100.00;97916.74;2203010;80;20392;-58
2022/09/14 06:41:25;;;;;;;;;;;;;;;16.90;100.00;97922.61;2190504;80;20096;-59
2022/09/14 06:44:26;;;;;;;;;;;;;;;16.95;100.00;97924.78;2168942;80;20398;-57
2022/09/14 06:47:28;;;;;;;;;;;;;;;16.99;100.00;97932.75;2200190;80;20108;-57
2022/09/14 06:50:30;;;;;;;;;;;;;;;17.06;100.00;97938.27;2204871;79;20140;-56
2022/09/14 06:53:31;;;;;;;;;;;;;;;17.08;100.00;97937.61;2206095;80;20112;-57
2022/09/14 06:56:33;;;;;;;;;;;;;;;17.13;100.00;97935.33;2244102;79;20141;-56
2022/09/14 06:59:34;;;;;;;;;;;;;;;17.29;100.00;97932.75;2198115;80;20449;-59
2022/09/14 07:02:35;;;;;;;;;;;;;;;17.56;100.00;97941.50;2189632;80;20125;-56
2022/09/14 07:05:37;;;;;;;;;;;;;;;17.68;100.00;97929.28;2198184;81;20149;-58
2022/09/14 07:08:38;;;;;;;;;;;;;;;17.89;100.00;97933.66;2199653;80;20108;-59
2022/09/14 07:11:40;;;;;;;;;;;;;;;18.20;100.00;97940.20;2246539;78;20106;-59
2022/09/14 07:14:42;;;;;;;;;;;;;;;18.45;100.00;97943.73;2207071;80;20093;-59
2022/09/14 07:17:44;;;;;;;;;;;;;;;18.49;100.00;97954.36;2243761;78;20125;-60
2022/09/14 07:20:46;;;;;;;;;;;;;;;18.35;100.00;97955.32;2246473;78;20102;-59
2022/09/14 07:23:48;;;;;;;;;;;;;;;18.02;100.00;97949.64;2242093;79;20387;-58
2022/09/14 07:26:51;;;;;;;;;;;;;;;18.01;100.00;97951.45;2244240;78;20183;-59
2022/09/14 07:29:52;;;;;;;;;;;;;;;17.82;100.00;97956.51;2243842;78;20110;-58
2022/09/14 07:32:54;;;;;;;;;;;;;;;17.87;100.00;97956.87;2237038;78;20456;-59
2022/09/14 07:35:56;;;;;;;;;;;;;;;18.03;100.00;97957.44;2244084;79;20087;-59
2022/09/14 07:38:57;;;;;;;;;;;;;;;18.17;100.00;97952.83;2245403;78;20129;-59
2022/09/14 07:41:59;;;;;;;;;;;;;;;18.31;100.00;97954.48;2229648;78;20117;-59
2022/09/14 07:45:02;;;;;;;;;;;;;;;18.39;100.00;97943.89;2244250;78;20158;-59
2022/09/14 07:48:05;;;;;;;;;;;;;;;18.57;100.00;97938.91;2205492;78;20114;-59
2022/09/14 07:51:07;;;;;;;;;;;;;;;18.36;100.00;97934.94;2248536;78;20154;-58
2022/09/14 07:54:08;;;;;;;;;;;;;;;18.39;100.00;97943.04;2242913;78;20094;-59
2022/09/14 07:57:10;;;;;;;;;;;;;;;18.33;100.00;97941.39;2236466;78;20386;-59
2022/09/14 08:00:13;;;;;;;;;;;;;;;18.30;100.00;97936.42;2241569;79;20144;-59
2022/09/14 08:03:16;;;;;;;;;;;;;;;18.53;100.00;97935.74;2246901;78;20195;-58
2022/09/14 08:06:18;;;;;;;;;;;;;;;18.61;100.00;97923.80;2203566;78;20188;-59
2022/09/14 08:09:20;;;;;;;;;;;;;;;18.68;100.00;97928.77;2246322;78;20423;-58
2022/09/14 08:12:22;;;;;;;;;;;;;;;18.92;100.00;97931.59;2242089;78;20176;-58
2022/09/14 08:15:24;;;;;;;;;;;;;;;18.81;100.00;97933.58;2249429;78;20132;-58
2022/09/14 08:18:25;;;;;;;;;;;;;;;18.83;100.00;97926.29;2246688;78;20097;-59
2022/09/14 08:21:27;;;;;;;;;;;;;;;19.03;100.00;97926.75;2237841;79;20101;-59
2022/09/14 08:24:28;;;;;;;;;;;;;;;19.20;100.00;97930.72;2244991;78;20413;-58
2022/09/14 08:27:30;;;;;;;;;;;;;;;19.33;100.00;97937.64;2244421;78;20118;-59
2022/09/14 08:30:31;;;;;;;;;;;;;;;19.48;100.00;97932.45;2242798;79;20110;-59
2022/09/14 08:33:33;;;;;;;;;;;;;;;19.47;100.00;97928.13;2240913;78;20118;-59
2022/09/14 08:36:34;;;;;;;;;;;;;;;19.29;100.00;97932.84;2242475;78;20129;-58
2022/09/14 08:39:36;;;;;;;;;;;;;;;19.39;100.00;97924.17;2242043;79;20405;-59
2022/09/14 08:42:37;;;;;;;;;;;;;;;19.43;100.00;97926.00;2239848;78;20118;-59
2022/09/14 08:45:39;;;;;;;;;;;;;;;19.26;100.00;97926.03;2245824;78;20401;-59
2022/09/14 08:48:40;;;;;;;;;;;;;;;19.36;100.00;97927.98;2246214;78;20090;-57
2022/09/14 08:51:42;;;;;;;;;;;;;;;19.23;100.00;97917.59;2242113;78;20094;-57
2022/09/14 08:54:43;;;;;;;;;;;;;;;19.17;100.00;97919.92;2245287;78;20411;-59
2022/09/14 08:57:45;;;;;;;;;;;;;;;19.09;100.00;97925.25;2243329;78;20121;-59
2022/09/14 09:00:47;;;;;;;;;;;;;;;19.16;100.00;97928.87;2236411;79;20196;-59
2022/09/14 09:03:48;;;;;;;;;;;;;;;19.35;100.00;97925.51;2248348;78;20176;-59
2022/09/14 09:06:51;;;;;;;;;;;;;;;19.44;100.00;97932.95;2241530;79;20569;-59
2022/09/14 09:09:52;;;;;;;;;;;;;;;19.42;100.00;97928.31;2248851;78;20098;-59
2022/09/14 09:12:53;;;;;;;;;;;;;;;19.50;100.00;97929.63;2243869;78;20125;-60
2022/09/14 09:15:55;;;;;;;;;;;;;;;19.41;100.00;97931.48;2240545;79;20129;-59
2022/09/14 09:18:56;;;;;;;;;;;;;;;19.45;100.00;97931.95;2244245;79;20122;-59
2022/09/14 09:21:58;;;;;;;;;;;;;;;19.51;100.00;97926.79;2241600;78;20146;-59
2022/09/14 09:24:59;;;;;;;;;;;;;;;19.63;100.00;97929.89;2248092;78;20082;-59
2022/09/14 09:28:00;;;;;;;;;;;;;;;19.78;100.00;97933.97;2200486;80;20403;-58
2022/09/14 09:31:03;;;;;;;;;;;;;;;19.67;100.00;97932.53;2197800;80;20160;-58
2022/09/14 09:34:05;;;;;;;;;;;;;;;19.80;100.00;97932.52;2244356;78;20121;-58
2022/09/14 09:37:07;;;;;;;;;;;;;;;19.85;100.00;97927.48;2246404;78;20129;-58
2022/09/14 09:40:08;;;;;;;;;;;;;;;19.97;100.00;97933.23;2200877;80;20101;-59
2022/09/14 09:43:10;;;;;;;;;;;;;;;20.13;100.00;97934.48;2202065;80;20179;-59
2022/09/14 09:46:12;;;;;;;;;;;;;;;20.20;100.00;97926.59;2244339;78;20416;-59
2022/09/14 09:49:13;;;;;;;;;;;;;;;20.13;100.00;97933.15;2246689;77;20188;-59
2022/09/14 09:52:16;;;;;;;;;;;;;;;20.16;100.00;97926.14;2205307;80;20361;-59
2022/09/14 09:55:19;;;;;;;;;;;;;;;20.30;100.00;97921.89;2195614;81;20108;-59
2022/09/14 09:58:21;;;;;;;;;;;;;;;20.35;100.00;97934.14;2243347;79;20158;-60
2022/09/14 10:01:23;;;;;;;;;;;;;;;20.37;100.00;97925.98;2249583;78;20939;-58
2022/09/14 10:04:26;;;;;;;;;;;;;;;20.34;100.00;97925.86;2198354;80;20395;-58
2022/09/14 10:07:28;;;;;;;;;;;;;;;20.38;100.00;97926.31;2243346;78;20205;-59
2022/09/14 10:10:29;;;;;;;;;;;;;;;20.55;100.00;97929.68;2237364;79;20106;-58
2022/09/14 10:13:31;;;;;;;;;;;;;;;20.66;100.00;97937.73;2198945;81;20121;-58
2022/09/14 10:16:33;;;;;;;;;;;;;;;20.68;100.00;97933.92;2248867;78;20138;-58
2022/09/14 10:19:35;;;;;;;;;;;;;;;20.82;100.00;97924.31;2245761;78;20097;-59
2022/09/14 10:22:36;;;;;;;;;;;;;;;20.98;100.00;97935.83;2200872;80;20404;-59
2022/09/14 10:25:37;;;;;;;;;;;;;;;20.99;100.00;97935.64;2199667;80;20105;-59
2022/09/14 10:28:39;;;;;;;;;;;;;;;20.96;100.00;97929.84;2200065;80;20149;-59
2022/09/14 10:31:41;;;;;;;;;;;;;;;20.93;100.00;97927.87;2200275;81;20188;-58
2022/09/14 10:34:42;;;;;;;;;;;;;;;20.94;100.00;97932.69;2197660;80;20160;-57
2022/09/14 10:37:45;;;;;;;;;;;;;;;21.08;100.00;97940.39;2199877;80;20384;-57
2022/09/14 10:40:46;;;;;;;;;;;;;;;21.18;100.00;97924.94;2199769;80;20149;-58
2022/09/14 10:43:48;;;;;;;;;;;;;;;21.44;100.00;97920.47;2245219;78;20142;-57
2022/09/14 10:46:50;;;;;;;;;;;;;;;21.56;100.00;97920.84;2200065;80;20102;-57
2022/09/14 10:49:51;;;;;;;;;;;;;;;21.45;100.00;97935.47;2199043;80;20580;-60
2022/09/14 10:52:53;;;;;;;;;;;;;;;21.52;100.00;97906.25;2197297;80;20144;-59
2022/09/14 10:55:55;;;;;;;;;;;;;;;21.71;100.00;97913.36;2200364;80;20128;-59
2022/09/14 10:58:56;;;;;;;;;;;;;;;21.73;100.00;97907.31;2199629;80;20101;-59
2022/09/14 11:02:00;;;;;;;;;;;;;;;21.89;100.00;97916.41;2205003;79;20104;-59
2022/09/14 11:05:01;;;;;;;;;;;;;;;21.68;100.00;97918.55;2186761;80;20116;-59
2022/09/14 11:08:04;;;;;;;;;;;;;;;21.68;100.00;97909.70;2204713;80;20168;-59
2022/09/14 11:11:06;;;;;;;;;;;;;;;21.91;100.00;97907.73;2200434;80;20085;-59
2022/09/14 11:14:07;;;;;;;;;;;;;;;22.04;100.00;97907.53;2201874;80;20185;-59
2022/09/14 11:17:09;;;;;;;;;;;;;;;22.20;100.00;97905.16;2200580;81;20190;-59
2022/09/14 11:20:10;;;;;;;;;;;;;;;22.06;97.79;97898.84;2201406;80;20399;-59
2022/09/14 11:23:12;;;;;;;;;;;;;;;21.89;98.01;97898.25;2201842;80;20120;-59
2022/09/14 11:26:13;;;;;;;;;;;;;;;21.78;96.24;97904.41;2204891;80;20120;-59
2022/09/14 11:29:14;;;;;;;;;;;;;;;21.82;100.00;97890.16;2206616;80;20104;-58
2022/09/14 11:32:16;;;;;;;;;;;;;;;21.96;100.00;97885.80;2205258;80;20117;-59
2022/09/14 11:35:17;;;;;;;;;;;;;;;22.16;100.00;97890.01;2200210;80;20395;-59
2022/09/14 11:38:19;;;;;;;;;;;;;;;22.26;99.82;97884.35;2210202;79;20101;-60
2022/09/14 11:41:21;;;;;;;;;;;;;;;22.32;95.48;97883.58;2205177;80;20124;-60
2022/09/14 11:44:23;;;;;;;;;;;;;;;22.36;100.00;97885.40;2208884;80;20132;-60
2022/09/14 11:47:25;;;;;;;;;;;;;;;22.28;95.86;97888.49;2205140;80;20097;-59
2022/09/14 11:50:26;;;;;;;;;;;;;;;22.21;91.12;97893.44;2198689;80;20132;-60
2022/09/14 11:53:28;;;;;;;;;;;;;;;22.19;97.67;97885.61;2204740;80;20214;-59
2022/09/14 11:56:30;;;;;;;;;;;;;;;22.25;96.17;97891.52;2202341;80;20136;-59
2022/09/14 11:59:31;;;;;;;;;;;;;;;21.95;91.15;97878.31;2194181;79;20108;-59
2022/09/14 12:02:34;;;;;;;;;;;;;;;22.07;100.00;97871.95;2207993;80;20132;-59
2022/09/14 12:05:36;;;;;;;;;;;;;;;22.09;93.96;97876.58;2200674;81;20136;-59
2022/09/14 12:08:37;;;;;;;;;;;;;;;22.02;95.12;97865.01;2209390;80;20170;-59
2022/09/14 12:11:39;;;;;;;;;;;;;;;22.03;98.74;97867.19;2207238;79;20139;-59
2022/09/14 12:14:43;;;;;;;;;;;;;;;22.08;98.19;97864.27;2200200;81;20147;-59
2022/09/14 12:17:44;;;;;;;;;;;;;;;22.06;93.37;97864.95;2220954;79;20108;-59
2022/09/14 12:20:47;;;;;;;;;;;;;;;22.01;94.66;97866.05;2241992;78;20264;-57
2022/09/14 12:23:50;;;;;;;;;;;;;;;22.07;97.21;97863.12;2231366;78;20102;-60
2022/09/14 12:26:52;;;;;;;;;;;;;;;22.03;93.81;97865.34;2194610;79;20098;-59
2022/09/14 12:32:56;;;;;;;;;;;;;;;22.04;94.58;97863.48;2218361;78;20107;-57
2022/09/14 12:35:58;;;;;;;;;;;;;;;21.96;97.17;97863.11;2240278;79;20102;-58
2022/09/14 12:39:00;;;;;;;;;;;;;;;21.75;95.05;97868.76;2237473;79;20106;-60
2022/09/14 12:42:01;;;;;;;;;;;;;;;21.62;96.93;97868.58;2243218;78;20106;-58
2022/09/14 12:45:03;;;;;;;;;;;;;;;21.56;95.77;97860.83;2242406;78;20442;-60
2022/09/14 12:48:04;;;;;;;;;;;;;;;;;;2238379;78;20129;-59
2022/09/14 12:51:06;;;;;;;;;;;;;;;21.31;98.65;97860.30;2238091;79;20187;-59
2022/09/14 12:54:07;;;;;;;;;;;;;;;21.07;98.89;97850.75;2240426;78;20454;-59
2022/09/14 12:57:09;;;;;;;;;;;;;;;20.90;100.00;97857.61;2238732;79;20177;-59
2022/09/14 13:00:11;;;;;;;;;;;;;;;20.79;100.00;97847.41;2238164;79;20125;-59
2022/09/14 13:03:13;;;;;;;;;;;;;;;20.89;100.00;97845.29;2240043;79;20421;-59
2022/09/14 13:06:14;;;;;;;;;;;;;;;20.90;100.00;97844.29;2242445;78;20142;-58
2022/09/14 13:09:16;;;;;;;;;;;;;;;20.90;100.00;97848.77;2240868;78;20101;-59
2022/09/14 13:12:17;;;;;;;;;;;;;;;20.98;100.00;97846.54;2245165;78;20094;-59
2022/09/14 13:15:19;;;;;;;;;;;;;;;20.90;100.00;97838.95;2243816;78;20262;-58
2022/09/14 13:18:21;;;;;;;;;;;;;;;20.83;100.00;97830.53;2240037;78;20549;-59
2022/09/14 13:21:23;;;;;;;;;;;;;;;20.76;100.00;97829.94;2251448;78;20129;-59
2022/09/14 13:24:25;;;;;;;;;;;;;;;20.75;100.00;97826.13;2225542;79;20106;-59
2022/09/14 13:27:26;;;;;;;;;;;;;;;20.72;100.00;97831.83;2240214;78;20099;-59
2022/09/14 13:30:28;;;;;;;;;;;;;;;20.72;100.00;97833.97;2240200;78;20151;-60
2022/09/14 13:33:29;;;;;;;;;;;;;;;20.62;100.00;97831.23;2242132;78;20106;-59
2022/09/14 13:36:31;;;;;;;;;;;;;;;20.64;100.00;97826.03;2243462;78;20420;-59
2022/09/14 13:39:32;;;;;;;;;;;;;;;20.59;100.00;97821.25;2239384;78;20166;-59
2022/09/14 13:42:34;;;;;;;;;;;;;;;20.56;100.00;97816.30;2235560;79;20230;-60
2022/09/14 13:45:35;;;;;;;;;;;;;;;20.61;100.00;97815.73;2243620;79;20110;-58
2022/09/14 13:48:39;;;;;;;;;;;;;;;20.64;100.00;97814.04;2240570;78;20138;-59
2022/09/14 13:51:40;;;;;;;;;;;;;;;20.69;100.00;97809.55;2238499;78;20094;-59
2022/09/14 13:54:41;;;;;;;;;;;;;;;20.71;100.00;97809.66;2239690;78;20095;-59
2022/09/14 13:57:43;;;;;;;;;;;;;;;20.73;100.00;97805.48;2242050;78;20189;-59
2022/09/14 14:00:44;;;;;;;;;;;;;;;20.74;100.00;97803.97;2241585;78;20533;-59
2022/09/14 14:03:46;;;;;;;;;;;;;;;20.81;100.00;97800.07;2228351;78;20091;-59
2022/09/14 14:06:47;;;;;;;;;;;;;;;20.77;100.00;97796.12;2237749;79;20396;-59
2022/09/14 14:09:50;;;;;;;;;;;;;;;20.81;100.00;97781.42;2240737;78;20082;-59
2022/09/14 14:12:51;;;;;;;;;;;;;;;20.94;100.00;97771.44;2234811;78;20159;-59
2022/09/14 14:15:53;;;;;;;;;;;;;;;21.03;100.00;97782.34;2240115;78;20169;-59
2022/09/14 14:18:55;;;;;;;;;;;;;;;21.03;100.00;97789.48;2236764;79;20179;-59
2022/09/14 14:21:56;;;;;;;;;;;;;;;21.11;100.00;97781.39;2239786;79;20106;-59
2022/09/14 14:24:58;;;;;;;;;;;;;;;21.13;100.00;97782.02;2242891;78;20384;-60
2022/09/14 14:28:00;;;;;;;;;;;;;;;21.17;100.00;97783.30;2239849;79;20106;-58
2022/09/14 14:31:01;;;;;;;;;;;;;;;21.27;100.00;97773.69;2240120;78;20398;-58
2022/09/14 14:34:03;;;;;;;;;;;;;;;21.34;100.00;97773.25;2240288;78;20151;-58
2022/09/14 14:37:04;;;;;;;;;;;;;;;21.26;100.00;97754.69;2240355;78;20110;-57
2022/09/14 14:40:06;;;;;;;;;;;;;;;21.19;100.00;97757.78;2239753;78;20150;-58
2022/09/14 14:43:08;;;;;;;;;;;;;;;21.01;100.00;97760.36;2241177;79;20150;-57
2022/09/14 14:46:10;;;;;;;;;;;;;;;20.79;100.00;97755.48;2218093;78;20389;-59
2022/09/14 14:49:11;;;;;;;;;;;;;;;20.68;100.00;97762.08;2238266;78;20126;-59
2022/09/14 14:52:13;;;;;;;;;;;;;;;20.59;100.00;97766.64;2242412;78;20082;-59
2022/09/14 14:55:15;;;;;;;;;;;;;;;20.48;100.00;97762.28;2240632;78;20386;-59
2022/09/14 14:58:16;;;;;;;;;;;;;;;20.42;100.00;97772.64;2238296;79;20150;-59
2022/09/14 15:01:18;;;;;;;;;;;;;;;20.30;100.00;97770.13;2239449;79;20125;-60
2022/09/14 15:04:19;;;;;;;;;;;;;;;20.18;100.00;97763.57;2237796;79;20103;-59
2022/09/14 15:07:22;;;;;;;;;;;;;;;20.11;100.00;97767.45;2239871;79;20098;-59
2022/09/14 15:10:23;;;;;;;;;;;;;;;20.06;100.00;97764.00;2237454;79;20133;-60
2022/09/14 15:13:25;;;;;;;;;;;;;;;20.01;100.00;97769.54;2241942;79;20126;-59
2022/09/14 15:16:26;;;;;;;;;;;;;;;19.91;100.00;97765.79;2246155;79;20102;-59
2022/09/14 15:19:27;;;;;;;;;;;;;;;19.86;100.00;97773.50;2239641;78;20107;-59
2022/09/14 15:22:29;;;;;;;;;;;;;;;19.86;100.00;97769.00;2238874;78;20983;-58
2022/09/14 15:25:30;;;;;;;;;;;;;;;19.93;100.00;97767.79;2227895;79;20382;-59
2022/09/14 15:28:37;;;;;;;;;;;;;;;20.11;100.00;97769.30;2240933;78;20094;-59
2022/09/14 15:31:36;;;;;;;;;;;;;;;20.28;100.00;97772.12;2207933;78;20103;-58
2022/09/14 15:34:40;;;;;;;;;;;;;;;20.41;100.00;97767.02;2243780;78;20139;-59
2022/09/14 15:37:41;;;;;;;;;;;;;;;20.53;100.00;97766.05;2238777;78;20106;-59